Time;durP1;ratioP1;P1;durP2;ratioP2;P2;SDS_P1;SDS_P2;PMS_P1;PMS_P2;Temp;Humidity;BMP_temperature;BMP_pressure;BME280_temperature;BME280_humidity;BME280_pressure;Samples;Min_cycle;Max_cycle;Signal;HPM_P1;HPM_P2
2021/06/30 00:00:53;;;;;;;4.15;0.70;;;;;;;29.09;35.83;96306.38;4933146;28;20141;-32
2021/06/30 00:03:19;;;;;;;2.67;0.70;;;;;;;29.09;36.01;96306.38;4938850;28;20684;-31
2021/06/30 00:05:44;;;;;;;2.85;0.57;;;;;;;29.11;35.86;96315.03;4932377;28;20039;-34
2021/06/30 00:08:10;;;;;;;4.32;0.60;;;;;;;29.10;35.87;96313.31;4931414;28;20031;-29
2021/06/30 00:10:37;;;;;;;1.10;0.57;;;;;;;29.10;35.89;96313.31;4934573;28;20757;-31
2021/06/30 00:13:02;;;;;;;2.33;0.52;;;;;;;29.10;36.13;96313.31;4935652;28;20038;-33
2021/06/30 00:15:29;;;;;;;1.85;0.43;;;;;;;29.11;36.07;96320.31;4937324;28;20034;-31
2021/06/30 00:17:55;;;;;;;3.38;0.60;;;;;;;29.13;36.21;96312.28;4934999;28;20089;-33
2021/06/30 00:20:21;;;;;;;1.50;0.80;;;;;;;29.12;35.89;96316.69;4933195;28;20039;-33
2021/06/30 00:22:46;;;;;;;14.00;0.60;;;;;;;29.13;36.06;96326.28;4931336;28;20130;-34
2021/06/30 00:25:12;;;;;;;4.15;0.60;;;;;;;29.13;36.16;96323.66;4931870;28;20046;-33
2021/06/30 00:27:37;;;;;;;0.57;0.30;;;;;;;29.13;36.18;96322.84;4933992;28;20075;-37
2021/06/30 00:30:04;;;;;;;2.40;0.52;;;;;;;29.13;35.92;96310.47;4937240;28;20058;-34
2021/06/30 00:32:30;;;;;;;1.02;0.55;;;;;;;29.14;36.09;96314.78;4933596;28;20043;-40
2021/06/30 00:34:55;;;;;;;4.22;0.60;;;;;;;29.14;36.23;96314.78;4937197;28;20734;-36
2021/06/30 00:37:20;;;;;;;1.30;0.50;;;;;;;29.14;35.71;96304.22;4932028;28;20026;-32
2021/06/30 00:39:46;;;;;;;0.55;0.32;;;;;;;29.15;36.09;96303.28;4932721;28;20023;-30
2021/06/30 00:42:11;;;;;;;0.82;0.50;;;;;;;29.16;35.99;96312.88;4932830;28;20031;-32
2021/06/30 00:44:41;;;;;;;4.53;0.60;;;;;;;29.17;36.25;96313.69;4947427;28;20029;-36
2021/06/30 00:47:06;;;;;;;0.93;0.45;;;;;;;29.16;36.06;96307.59;4931754;28;20031;-29
2021/06/30 00:49:31;;;;;;;3.00;0.50;;;;;;;29.16;36.16;96312.88;4950660;28;20053;-33
2021/06/30 00:51:57;;;;;;;0.85;0.40;;;;;;;29.17;36.19;96311.91;4935841;28;20031;-33
2021/06/30 00:54:22;;;;;;;1.20;0.43;;;;;;;29.17;35.82;96318.97;4933344;28;20582;-32
2021/06/30 00:56:48;;;;;;;1.30;0.40;;;;;;;29.16;36.13;96318.16;4934590;28;22942;-33
2021/06/30 00:59:13;;;;;;;2.72;0.60;;;;;;;29.16;36.07;96320.78;4966537;28;20031;-31
2021/06/30 01:01:39;;;;;;;1.58;0.50;;;;;;;29.20;36.02;96314.34;4931502;28;20121;-31
2021/06/30 01:04:04;;;;;;;2.42;0.50;;;;;;;29.17;35.92;96322.47;4936022;28;20034;-34
2021/06/30 01:06:30;;;;;;;4.13;0.43;;;;;;;29.18;36.04;96326.78;4931865;28;20046;-33
2021/06/30 01:08:55;;;;;;;0.50;0.30;;;;;;;29.19;35.99;96333.78;4934517;28;20140;-35
2021/06/30 01:11:21;;;;;;;1.38;0.57;;;;;;;29.18;36.15;96341.78;4946554;28;20117;-32
2021/06/30 01:13:47;;;;;;;2.05;0.30;;;;;;;29.18;36.03;96344.44;4949017;28;20023;-32
2021/06/30 01:16:13;;;;;;;1.38;0.43;;;;;;;29.18;36.29;96353.16;4960555;28;20030;-34
2021/06/30 01:18:39;;;;;;;1.42;0.40;;;;;;;29.17;35.89;96346.22;4933869;28;20069;-33
2021/06/30 01:21:09;;;;;;;5.05;0.88;;;;;;;29.18;36.18;96362.91;4959789;28;20041;-33
2021/06/30 01:23:34;;;;;;;2.20;0.45;;;;;;;29.17;36.06;96351.50;4933788;28;20069;-33
2021/06/30 01:26:00;;;;;;;1.50;0.57;;;;;;;29.18;36.24;96355.81;4948366;28;20738;-34
2021/06/30 01:28:26;;;;;;;0.77;0.30;;;;;;;29.17;36.17;96356.78;4937482;28;20553;-35
2021/06/30 01:30:52;;;;;;;2.25;0.47;;;;;;;29.17;36.07;96359.41;4929212;28;20050;-33
2021/06/30 01:33:17;;;;;;;3.30;0.57;;;;;;;29.17;36.29;96351.50;4935497;28;20031;-33
2021/06/30 01:35:43;;;;;;;0.73;0.40;;;;;;;29.15;36.24;96345.50;4961874;28;20041;-33
2021/06/30 01:38:08;;;;;;;0.68;0.30;;;;;;;29.17;35.94;96343.56;4930000;28;20031;-35
2021/06/30 01:40:34;;;;;;;1.80;0.45;;;;;;;29.18;36.25;96333.88;4946273;28;20863;-32
2021/06/30 01:43:02;;;;;;;2.20;0.60;;;;;;;29.12;35.88;96321.97;4928719;28;20031;-31
2021/06/30 01:45:28;;;;;;;3.65;0.50;;;;;;;29.17;36.09;96340.94;4963458;28;20023;-32
2021/06/30 01:47:53;;;;;;;1.17;0.30;;;;;;;29.17;36.25;96345.38;4961266;28;20946;-32
2021/06/30 01:50:19;;;;;;;4.03;0.40;;;;;;;29.16;36.15;96352.47;4933112;28;20687;-31
2021/06/30 01:52:45;;;;;;;1.85;0.40;;;;;;;29.16;36.24;96339.25;4929018;28;20042;-32
2021/06/30 01:55:12;;;;;;;5.38;0.57;;;;;;;29.17;36.05;96330.38;4935297;28;20458;-31
2021/06/30 01:57:41;;;;;;;1.20;0.43;;;;;;;29.16;36.15;96318.16;4932970;28;21123;-34
2021/06/30 02:00:08;;;;;;;1.85;0.43;;;;;;;29.17;36.25;96321.63;4930211;28;20049;-34
2021/06/30 02:02:34;;;;;;;0.60;0.20;;;;;;;29.16;36.10;96312.88;4892206;28;1107579;-34
2021/06/30 02:05:20;;;;;;;1.17;0.30;;;;;;;29.16;35.98;96312.88;4933762;28;20055;-29
2021/06/30 02:07:51;;;;;;;1.70;0.40;;;;;;;29.16;36.23;96312.88;4947081;28;20024;-32
2021/06/30 02:10:17;;;;;;;1.10;0.30;;;;;;;29.15;36.22;96313.84;4932556;28;20035;-31
2021/06/30 02:12:43;;;;;;;4.20;0.50;;;;;;;29.16;35.98;96312.88;4930652;28;20853;-31
2021/06/30 02:15:12;;;;;;;0.38;0.20;;;;;;;29.15;35.90;96303.28;4950015;28;20575;-33
2021/06/30 02:17:37;;;;;;;2.47;0.43;;;;;;;29.16;36.05;96306.75;4943831;28;20066;-34
2021/06/30 02:20:07;;;;;;;1.83;0.32;;;;;;;29.15;36.03;96313.84;4934189;28;20056;-30
2021/06/30 02:22:32;;;;;;;0.60;0.40;;;;;;;29.16;36.09;96312.88;4946597;28;20030;-31
2021/06/30 02:24:58;;;;;;;2.90;0.50;;;;;;;29.16;36.26;96318.16;4941872;28;20101;-34
2021/06/30 02:27:24;;;;;;;1.38;0.30;;;;;;;29.16;36.00;96318.16;4934477;28;20134;-31
2021/06/30 02:29:50;;;;;;;1.42;0.40;;;;;;;29.17;35.97;96326.91;4950699;28;20695;-37
2021/06/30 02:32:15;;;;;;;1.95;0.55;;;;;;;29.12;36.06;96327.25;4934768;28;20042;-31
2021/06/30 02:34:41;;;;;;;0.75;0.40;;;;;;;29.16;36.02;96328.72;4936918;28;20028;-32
2021/06/30 02:37:06;;;;;;;4.53;0.50;;;;;;;29.17;35.64;96330.38;4934502;28;20023;-31
2021/06/30 02:40:30;;;;;;;1.17;0.30;;;;;;;-148.56;100.00;61375.16;4934168;28;20717;-34
2021/06/30 02:42:56;;;;;;;0.43;0.30;;;;;;;29.21;35.88;96320.44;4932087;28;20030;-29
2021/06/30 02:45:21;;;;;;;0.68;0.20;;;;;;;29.19;36.12;96317.94;4934974;28;20034;-33
2021/06/30 02:47:48;;;;;;;1.33;0.22;;;;;;;29.19;35.96;96322.34;4928552;28;20557;-37
2021/06/30 02:50:15;;;;;;;0.30;0.28;;;;;;;29.18;36.06;96326.78;4960139;28;20027;-29
2021/06/30 02:52:41;;;;;;;0.60;0.40;;;;;;;29.17;35.87;96330.38;4931768;28;20549;-31
2021/06/30 02:56:05;;;;;;;3.33;0.30;;;;;;;-148.56;100.00;61375.16;4935169;28;20039;-33
2021/06/30 02:59:28;;;;;;;0.30;0.17;;;;;;;-148.56;100.00;61375.16;4932403;28;20300;-33
2021/06/30 03:02:52;;;;;;;1.58;0.30;;;;;;;-148.56;100.00;61375.16;4922323;28;20864;-35
2021/06/30 03:06:16;;;;;;;1.10;0.30;;;;;;;-148.56;100.00;61375.16;4937489;28;20023;-34
2021/06/30 03:09:40;;;;;;;0.55;0.22;;;;;;;-148.56;100.00;61375.16;4937464;28;20744;-33
2021/06/30 03:13:04;;;;;;;1.20;0.40;;;;;;;-148.56;100.00;61375.16;4939562;28;20043;-33
2021/06/30 03:16:28;;;;;;;0.30;0.30;;;;;;;-148.56;100.00;61375.16;4934959;28;20108;-33
2021/06/30 03:19:52;;;;;;;0.63;0.22;;;;;;;-148.56;100.00;61375.16;4933877;28;20037;-37
2021/06/30 03:23:15;;;;;;;2.17;0.30;;;;;;;-148.56;100.00;61375.16;4936017;28;20065;-34
2021/06/30 03:26:39;;;;;;;0.30;0.17;;;;;;;-148.56;100.00;61375.16;4934471;28;20624;-34
2021/06/30 03:30:04;;;;;;;0.52;0.20;;;;;;;-148.56;100.00;61375.16;4940929;28;20047;-34
2021/06/30 03:33:28;;;;;;;0.75;0.20;;;;;;;-148.56;100.00;61375.16;4935666;28;20054;-34
2021/06/30 03:35:53;;;;;;;0.60;0.20;;;;;;;29.21;35.83;96338.91;4936489;28;20667;-30
2021/06/30 03:38:19;;;;;;;0.20;0.20;;;;;;;29.17;35.96;96338.31;4950553;28;20062;-35
2021/06/30 03:40:45;;;;;;;0.65;0.20;;;;;;;29.15;36.03;96337.59;4935293;28;20046;-34
2021/06/30 03:43:10;;;;;;;1.08;0.40;;;;;;;29.14;35.69;96335.88;4936441;28;20672;-30
2021/06/30 03:45:36;;;;;;;0.70;0.20;;;;;;;29.12;35.70;96332.53;4938304;28;20045;-34
2021/06/30 03:48:02;;;;;;;0.60;0.20;;;;;;;29.12;35.81;96335.16;4936859;28;20038;-30
2021/06/30 03:50:27;;;;;;;2.67;0.28;;;;;;;29.11;35.88;96336.13;4934285;28;20432;-32
2021/06/30 03:52:52;;;;;;;1.95;0.22;;;;;;;29.12;35.89;96339.59;4935224;28;20113;-32
2021/06/30 03:55:18;;;;;;;0.98;0.20;;;;;;;29.10;36.01;96333.59;4935763;28;20034;-30
2021/06/30 03:57:43;;;;;;;1.10;0.30;;;;;;;29.11;35.72;96336.13;4933428;28;20031;-33
2021/06/30 04:00:09;;;;;;;1.10;0.30;;;;;;;29.10;35.75;96329.16;4936213;28;20042;-34
2021/06/30 04:02:34;;;;;;;1.05;0.38;;;;;;;29.10;35.58;96334.44;4935609;28;20043;-30
2021/06/30 04:05:00;;;;;;;0.50;0.20;;;;;;;29.11;35.95;96336.13;4934422;28;20046;-33
2021/06/30 04:07:25;;;;;;;1.30;0.30;;;;;;;29.10;35.77;96339.69;4932918;28;20086;-36
2021/06/30 04:10:49;;;;;;;0.57;0.28;;;;;;;-148.56;100.00;61375.16;4937344;28;20035;-32
2021/06/30 04:14:13;;;;;;;0.40;0.13;;;;;;;-148.56;100.00;61375.16;4937160;28;20065;-33
2021/06/30 04:17:37;;;;;;;0.30;0.20;;;;;;;-148.56;100.00;61375.16;4938587;28;20031;-35
2021/06/30 04:21:05;;;;;;;3.28;0.40;;;;;;;-148.56;100.00;61375.16;4940314;28;20035;-29
2021/06/30 04:24:28;;;;;;;0.45;0.30;;;;;;;-148.56;100.00;61375.16;4935182;28;20269;-34
2021/06/30 04:27:52;;;;;;;0.55;0.20;;;;;;;-148.56;100.00;61375.16;4937101;28;20022;-34
2021/06/30 04:31:17;;;;;;;0.20;0.10;;;;;;;-148.56;100.00;61375.16;4933264;28;20730;-29
2021/06/30 04:34:40;;;;;;;0.52;0.20;;;;;;;-148.56;100.00;61375.16;4955934;28;21012;-29
2021/06/30 04:38:04;;;;;;;0.65;0.30;;;;;;;-148.56;100.00;61375.16;4931977;28;20983;-32
2021/06/30 04:41:28;;;;;;;0.10;0.10;;;;;;;-148.56;100.00;61375.16;4935316;28;20086;-31
2021/06/30 04:43:54;;;;;;;1.00;0.30;;;;;;;29.17;35.85;96348.00;4931905;28;20069;-32
2021/06/30 04:46:19;;;;;;;3.08;0.30;;;;;;;29.14;35.71;96341.16;4931239;28;20090;-31
2021/06/30 04:48:44;;;;;;;2.28;0.30;;;;;;;29.13;35.49;96344.75;4947291;28;20051;-32
2021/06/30 04:51:10;;;;;;;2.20;0.30;;;;;;;29.12;35.87;96345.72;4927658;28;20031;-33
2021/06/30 04:53:35;;;;;;;2.00;0.20;;;;;;;29.12;36.20;96340.44;4935466;28;20046;-29
2021/06/30 04:56:01;;;;;;;1.20;0.30;;;;;;;29.12;36.24;96343.09;4935803;28;20516;-34
2021/06/30 04:58:26;;;;;;;1.27;0.30;;;;;;;29.07;36.02;96329.41;4936020;28;20675;-30
2021/06/30 05:00:54;;;;;;;2.22;0.20;;;;;;;29.11;36.22;96336.13;4948537;28;20555;-32
2021/06/30 05:03:27;;;;;;;0.80;0.30;;;;;;;29.11;35.89;96330.00;4934579;28;20030;-36
2021/06/30 05:05:56;;;;;;;0.10;0.10;;;;;;;29.12;35.97;96331.69;4928943;28;20094;-33
2021/06/30 05:08:22;;;;;;;3.13;0.20;;;;;;;29.12;36.07;96334.31;4935579;28;20031;-32
2021/06/30 05:10:48;;;;;;;0.93;0.30;;;;;;;29.10;36.02;96329.16;4933280;28;20272;-35
2021/06/30 05:13:13;;;;;;;0.93;0.28;;;;;;;29.12;36.21;96337.81;4933669;28;20031;-29
2021/06/30 05:15:38;;;;;;;2.42;0.30;;;;;;;29.12;36.11;96327.25;4935566;28;20030;-31
2021/06/30 05:18:04;;;;;;;1.02;0.30;;;;;;;29.12;36.08;96327.25;4935570;28;20139;-32
2021/06/30 05:20:29;;;;;;;0.85;0.28;;;;;;;29.12;36.23;96327.25;4925853;28;20031;-33
2021/06/30 05:22:55;;;;;;;0.50;0.30;;;;;;;29.12;35.95;96329.91;4928138;28;20050;-34
2021/06/30 05:25:20;;;;;;;0.85;0.40;;;;;;;29.12;36.16;96332.53;4929079;28;20109;-32
2021/06/30 05:27:45;;;;;;;0.68;0.40;;;;;;;29.12;35.88;96337.81;4961089;28;20031;-30
2021/06/30 05:30:11;;;;;;;0.30;0.20;;;;;;;29.13;36.17;96333.38;4932914;28;20053;-30
2021/06/30 05:32:37;;;;;;;0.40;0.40;;;;;;;29.12;35.97;96336.94;4936250;28;20106;-31
2021/06/30 05:35:03;;;;;;;0.32;0.20;;;;;;;29.11;36.22;96336.13;4930200;28;20027;-32
2021/06/30 05:37:28;;;;;;;0.30;0.30;;;;;;;29.13;36.26;96344.75;4930985;28;20035;-29
2021/06/30 05:39:53;;;;;;;1.05;0.30;;;;;;;29.08;35.99;96328.44;4945481;28;20041;-33
2021/06/30 05:42:19;;;;;;;0.80;0.20;;;;;;;29.13;36.09;96328.09;4929811;28;20055;-34
2021/06/30 05:44:44;;;;;;;1.17;0.40;;;;;;;29.13;35.89;96330.75;4937522;28;20042;-32
2021/06/30 05:47:09;;;;;;;0.30;0.30;;;;;;;29.14;35.99;96329.78;4933260;28;20039;-31
2021/06/30 05:49:35;;;;;;;1.65;0.25;;;;;;;29.13;35.86;96334.22;4936492;28;20050;-34
2021/06/30 05:52:00;;;;;;;1.63;0.35;;;;;;;29.13;35.87;96323.66;4933841;28;20605;-34
2021/06/30 05:54:28;;;;;;;0.82;0.30;;;;;;;29.12;35.73;96329.91;4934882;28;20030;-33
2021/06/30 05:56:53;;;;;;;1.02;0.32;;;;;;;29.13;35.83;96328.94;4934536;28;20034;-34
2021/06/30 05:59:19;;;;;;;2.67;0.40;;;;;;;29.14;35.88;96330.59;4933744;28;20035;-34
2021/06/30 06:01:44;;;;;;;0.93;0.32;;;;;;;29.14;35.80;96335.06;4943877;28;20564;-33
2021/06/30 06:04:09;;;;;;;2.25;0.52;;;;;;;29.14;35.90;96329.78;4932180;28;20512;-34
2021/06/30 06:06:35;;;;;;;1.45;0.40;;;;;;;29.14;35.89;96333.25;4929025;28;20102;-31
2021/06/30 06:09:00;;;;;;;2.15;0.20;;;;;;;29.14;35.88;96330.59;4936053;28;20030;-31
2021/06/30 06:11:25;;;;;;;2.03;0.40;;;;;;;29.13;36.09;96336.84;4932335;28;20777;-29
2021/06/30 06:13:51;;;;;;;0.38;0.25;;;;;;;29.14;36.00;96335.88;4930223;28;20034;-34
2021/06/30 06:16:20;;;;;;;0.95;0.25;;;;;;;29.15;35.85;96345.50;4934999;28;20328;-32
2021/06/30 06:18:47;;;;;;;1.58;0.28;;;;;;;29.14;35.87;96335.88;4932596;28;20035;-34
2021/06/30 06:21:12;;;;;;;2.92;0.28;;;;;;;29.16;35.92;96338.41;4925989;28;20239;-31
2021/06/30 06:23:38;;;;;;;1.88;0.35;;;;;;;29.15;36.11;96342.00;4932637;28;20039;-32
2021/06/30 06:26:03;;;;;;;0.95;0.30;;;;;;;29.15;35.86;96348.13;4933954;28;20524;-29
2021/06/30 06:28:33;;;;;;;3.22;0.40;;;;;;;29.16;35.82;96346.31;4936777;28;20292;-34
2021/06/30 06:31:00;;;;;;;1.85;0.30;;;;;;;29.16;35.82;96349.81;4944383;28;20564;-31
2021/06/30 06:33:25;;;;;;;0.90;0.40;;;;;;;29.16;36.24;96354.25;4957266;28;20031;-34
2021/06/30 06:35:50;;;;;;;1.80;0.40;;;;;;;29.16;35.91;96355.09;4928413;28;20035;-34
2021/06/30 06:38:16;;;;;;;1.20;0.35;;;;;;;29.14;34.91;96346.44;4965543;28;20023;-30
2021/06/30 06:40:41;;;;;;;0.75;0.40;;;;;;;29.04;34.02;96343.66;4938699;28;20038;-30
2021/06/30 06:43:08;;;;;;;3.50;0.35;;;;;;;29.06;33.75;96351.47;4937049;28;20034;-37
2021/06/30 06:45:33;;;;;;;1.23;0.30;;;;;;;28.99;32.91;96347.59;4934349;28;20065;-31
2021/06/30 06:47:58;;;;;;;1.63;0.32;;;;;;;28.90;32.23;96349.09;4932384;28;20651;-31
2021/06/30 06:50:24;;;;;;;6.70;0.55;;;;;;;28.81;32.27;96353.22;4937288;28;20050;-30
2021/06/30 06:52:49;;;;;;;0.28;0.20;;;;;;;28.69;31.69;96347.88;4934632;28;20214;-29
2021/06/30 06:55:15;;;;;;;2.13;0.10;;;;;;;28.59;31.90;96341.59;4933955;28;20247;-30
2021/06/30 06:57:40;;;;;;;1.70;0.30;;;;;;;28.50;31.94;96342.25;4933958;28;20026;-32
2021/06/30 07:00:06;;;;;;;2.83;0.40;;;;;;;28.38;31.43;96346.59;4930651;28;20233;-30
2021/06/30 07:02:32;;;;;;;0.35;0.10;;;;;;;28.23;31.28;96345.88;4931090;28;20682;-31
2021/06/30 07:04:57;;;;;;;0.15;0.10;;;;;;;28.16;31.58;96351.56;4928963;28;20117;-34
2021/06/30 07:07:22;;;;;;;1.58;0.30;;;;;;;28.06;31.86;96345.25;4947889;28;20038;-33
2021/06/30 07:09:48;;;;;;;0.13;0.13;;;;;;;27.96;31.61;96354.75;4931069;28;20042;-31
2021/06/30 07:12:13;;;;;;;0.40;0.20;;;;;;;27.85;31.75;96358.97;4933936;28;20910;-33
2021/06/30 07:14:39;;;;;;;0.65;0.20;;;;;;;27.74;31.58;96351.81;4925677;28;20050;-31
2021/06/30 07:17:04;;;;;;;0.20;0.20;;;;;;;27.63;31.71;96357.78;4932800;28;20038;-30
2021/06/30 07:19:30;;;;;;;0.38;0.17;;;;;;;27.57;32.05;96365.22;4932057;28;20061;-31
2021/06/30 07:21:55;;;;;;;1.45;0.50;;;;;;;27.51;32.23;96359.41;4931222;28;22546;-32
2021/06/30 07:24:20;;;;;;;0.25;0.20;;;;;;;27.47;32.14;96365.00;4932754;28;20690;-33
2021/06/30 07:26:46;;;;;;;2.05;0.20;;;;;;;27.42;32.25;96372.34;4960730;28;20042;-33
2021/06/30 07:29:11;;;;;;;0.28;0.20;;;;;;;27.39;32.33;96368.97;4946146;28;20030;-30
2021/06/30 07:31:37;;;;;;;0.22;0.20;;;;;;;27.32;32.24;96372.97;4930573;28;20054;-31
2021/06/30 07:34:05;;;;;;;0.82;0.28;;;;;;;27.26;32.31;96363.69;4930754;28;20046;-32
2021/06/30 07:36:31;;;;;;;2.70;0.20;;;;;;;27.24;32.38;96370.00;4930408;28;20027;-33
2021/06/30 07:38:56;;;;;;;1.35;0.20;;;;;;;27.20;32.58;96379.03;4931750;28;20030;-31
2021/06/30 07:41:22;;;;;;;0.80;0.10;;;;;;;27.16;32.69;96377.53;4930146;28;20121;-33
2021/06/30 07:43:47;;;;;;;2.20;0.22;;;;;;;27.12;32.79;96380.38;4930744;28;20034;-34
2021/06/30 07:46:12;;;;;;;0.40;0.20;;;;;;;27.08;32.94;96373.63;4931580;28;20035;-31
2021/06/30 07:48:38;;;;;;;0.65;0.28;;;;;;;27.06;33.09;96378.16;4931815;28;20031;-30
2021/06/30 07:51:03;;;;;;;0.20;0.20;;;;;;;27.04;33.26;96374.75;4929100;28;20319;-34
2021/06/30 07:53:29;;;;;;;0.38;0.20;;;;;;;27.03;33.32;96380.97;4931677;28;20027;-32
2021/06/30 07:55:54;;;;;;;1.33;0.63;;;;;;;27.01;33.16;96377.63;4929277;28;22753;-34
2021/06/30 07:58:20;;;;;;;0.73;0.30;;;;;;;26.96;33.07;96377.91;4930085;28;20031;-32
2021/06/30 08:00:47;;;;;;;0.25;0.10;;;;;;;26.94;33.09;96384.16;4929925;28;20043;-36
2021/06/30 08:03:13;;;;;;;0.75;0.20;;;;;;;26.91;33.43;96381.72;4929813;28;20094;-31
2021/06/30 08:05:38;;;;;;;0.68;0.20;;;;;;;26.89;33.50;96387.09;4927507;28;20411;-37
2021/06/30 08:08:04;;;;;;;1.38;0.40;;;;;;;26.88;33.59;96381.00;4929352;28;20705;-34
2021/06/30 08:10:29;;;;;;;0.77;0.30;;;;;;;26.86;33.76;96377.59;4928130;28;20720;-34
2021/06/30 08:12:55;;;;;;;0.68;0.30;;;;;;;26.87;33.99;96374.06;4932747;28;20516;-35
2021/06/30 08:15:20;;;;;;;0.75;0.30;;;;;;;26.87;34.01;96374.06;4929194;28;20031;-31
2021/06/30 08:17:46;;;;;;;13.82;1.00;;;;;;;26.87;34.02;96366.16;4933060;28;20031;-33
2021/06/30 08:21:10;;;;;;;0.50;0.20;;;;;;;-148.56;100.00;61375.16;4945840;28;20030;-36
2021/06/30 08:24:34;;;;;;;0.25;0.22;;;;;;;-148.56;100.00;61375.16;4942328;28;20051;-36
2021/06/30 08:27:59;;;;;;;0.75;0.13;;;;;;;-148.56;100.00;61375.16;4931898;28;20509;-30
2021/06/30 08:31:23;;;;;;;0.50;0.40;;;;;;;-148.56;100.00;61375.16;4929189;28;20062;-31
2021/06/30 08:34:47;;;;;;;1.70;0.22;;;;;;;-148.56;100.00;61375.16;4932555;28;20034;-33
2021/06/30 08:38:11;;;;;;;1.00;0.30;;;;;;;-148.56;100.00;61375.16;4933384;28;20695;-32
2021/06/30 08:41:35;;;;;;;1.00;0.20;;;;;;;-148.56;100.00;61375.16;4939925;28;20158;-35
2021/06/30 08:44:59;;;;;;;0.55;0.20;;;;;;;-148.56;100.00;61375.16;4943885;28;20382;-34
2021/06/30 08:48:23;;;;;;;4.90;0.40;;;;;;;-148.56;100.00;61375.16;4925610;28;20035;-35
2021/06/30 08:50:48;;;;;;;2.30;0.25;;;;;;;26.57;32.32;96382.94;4947568;28;20042;-33
2021/06/30 08:53:14;;;;;;;1.50;0.30;;;;;;;26.57;32.34;96371.56;4930453;28;20429;-33
2021/06/30 08:55:46;;;;;;;1.20;0.32;;;;;;;26.58;32.48;96379.38;4929043;28;20031;-32
2021/06/30 08:58:14;;;;;;;;;;;;;;;26.63;32.78;96372.97;4930315;28;20056;-31
2021/06/30 09:00:41;;;;;;;0.22;0.20;;;;;;;26.68;32.84;96376.16;4957195;28;19963;-35
2021/06/30 09:03:12;;;;;;;4.40;0.38;;;;;;;26.73;32.68;96372.31;4930091;28;20136;-35
2021/06/30 09:06:00;;;;;;;2.80;0.20;;;;;;;26.79;32.85;96365.81;4931006;28;20034;-35
2021/06/30 09:08:35;;;;;;;0.65;0.50;;;;;;;26.85;32.67;96377.72;4930409;28;20046;-32
2021/06/30 09:11:10;;;;;;;0.50;0.30;;;;;;;26.90;32.48;96366.91;4960099;28;21001;-31
2021/06/30 09:13:35;;;;;;;0.85;0.20;;;;;;;26.96;32.39;96377.06;4928957;28;20545;-30
2021/06/30 09:16:01;;;;;;;3.05;0.32;;;;;;;26.99;32.62;96368.97;4930305;28;20041;-28
2021/06/30 09:18:33;;;;;;;0.88;0.30;;;;;;;27.03;32.53;96373.09;4943957;28;20038;-34
2021/06/30 09:21:16;;;;;;;0.80;0.28;;;;;;;27.09;32.47;96383.22;4925761;28;20185;-34
2021/06/30 09:23:59;;;;;;;1.80;0.70;;;;;;;27.12;32.36;96384.81;4929943;28;20110;-38
2021/06/30 09:26:26;;;;;;;0.60;0.30;;;;;;;27.10;32.32;96379.63;4931166;28;20035;-31
2021/06/30 09:29:07;;;;;;;6.78;0.30;;;;;;;27.18;32.67;96381.75;4945502;28;20034;-35
2021/06/30 09:31:33;;;;;;;4.40;0.60;;;;;;;27.22;32.82;96382.41;4934110;28;20516;-30
2021/06/30 09:33:58;;;;;;;7.80;1.15;;;;;;;27.25;32.97;96387.47;4933527;28;20370;-29
2021/06/30 09:36:26;;;;;;;9.63;1.55;;;;;;;27.20;33.11;96374.63;4932535;28;20043;-35
2021/06/30 09:38:51;;;;;;;5.53;1.73;;;;;;;27.34;33.23;96388.66;4937999;28;20038;-33
2021/06/30 09:41:26;;;;;;;9.00;1.65;;;;;;;27.38;33.36;96385.72;4938926;28;20031;-33
2021/06/30 09:44:09;;;;;;;6.45;1.98;;;;;;;27.43;33.34;96387.19;4937256;28;20122;-37
2021/06/30 09:46:35;;;;;;;8.52;1.92;;;;;;;27.46;33.35;96387.00;4936923;28;20217;-35
2021/06/30 09:49:02;;;;;;;6.88;1.80;;;;;;;27.50;33.39;96380.59;4951457;28;20031;-31
2021/06/30 09:51:28;;;;;;;8.65;1.95;;;;;;;27.54;33.30;96382.06;4937136;28;20121;-37
2021/06/30 09:53:53;;;;;;;8.70;1.88;;;;;;;27.57;33.39;96376.59;4936007;28;20039;-33
2021/06/30 09:56:35;;;;;;;8.48;2.00;;;;;;;27.60;33.33;96365.84;4935869;28;20038;-36
2021/06/30 09:59:40;;;;;;;8.70;2.15;;;;;;;27.65;33.44;96366.41;4936467;28;20911;-34
2021/06/30 10:02:06;;;;;;;6.38;2.22;;;;;;;27.70;33.50;96366.13;4930665;28;20047;-36
2021/06/30 10:04:45;;;;;;;5.00;2.00;;;;;;;27.73;33.58;96362.44;4934678;28;20309;-33
2021/06/30 10:07:24;;;;;;;7.25;1.98;;;;;;;27.78;33.53;96368.22;4936702;28;20023;-35
2021/06/30 10:09:52;;;;;;;6.72;1.60;;;;;;;27.81;33.42;96368.03;4947467;28;20119;-34
2021/06/30 10:12:22;;;;;;;4.78;1.67;;;;;;;27.83;33.44;96366.09;4935587;28;20045;-34
2021/06/30 10:14:48;;;;;;;7.35;1.45;;;;;;;27.86;33.61;96375.59;4940370;28;20105;-33
2021/06/30 10:17:14;;;;;;;5.95;1.90;;;;;;;27.87;33.74;96362.31;4937335;28;20028;-34
2021/06/30 10:19:40;;;;;;;4.95;1.90;;;;;;;27.90;33.56;96362.13;4937201;28;20026;-33
2021/06/30 10:22:07;;;;;;;3.78;1.30;;;;;;;27.94;33.73;96372.44;4941054;28;20042;-34
2021/06/30 10:24:32;;;;;;;5.13;1.75;;;;;;;27.96;34.00;96360.84;4940429;28;20812;-31
2021/06/30 10:27:00;;;;;;;7.95;1.77;;;;;;;27.98;33.89;96360.72;4939180;28;20030;-30
2021/06/30 10:29:33;;;;;;;6.72;1.67;;;;;;;28.01;33.84;96358.75;4943643;28;20152;-33
2021/06/30 10:32:07;;;;;;;7.60;1.67;;;;;;;28.04;33.97;96357.69;4952742;28;20811;-33
2021/06/30 10:34:53;;;;;;;7.63;1.70;;;;;;;28.07;33.78;96367.16;4939486;28;20043;-33
2021/06/30 10:37:18;;;;;;;4.00;1.40;;;;;;;28.09;34.00;96360.84;4953591;28;20396;-34
2021/06/30 10:39:49;;;;;;;4.72;1.52;;;;;;;28.12;33.98;96355.38;4933694;28;20618;-31
2021/06/30 10:42:18;;;;;;;5.68;1.67;;;;;;;28.15;33.99;96359.56;4935527;28;20031;-35
2021/06/30 10:44:52;;;;;;;5.45;1.27;;;;;;;28.16;34.17;96362.13;4928642;28;20051;-33
2021/06/30 10:47:32;;;;;;;5.80;1.60;;;;;;;28.20;34.19;96361.88;4932032;28;20035;-30
2021/06/30 10:50:37;;;;;;;3.95;1.40;;;;;;;28.21;34.06;96363.56;4934770;28;20080;-35
2021/06/30 10:53:03;;;;;;;4.82;1.55;;;;;;;28.23;34.32;96361.66;4932230;28;20038;-31
2021/06/30 10:55:31;;;;;;;7.13;1.75;;;;;;;28.23;34.24;96356.41;4931250;28;20100;-31
2021/06/30 10:58:16;;;;;;;4.05;1.38;;;;;;;28.23;34.21;96348.50;4932685;28;20029;-35
2021/06/30 11:01:03;;;;;;;3.67;1.50;;;;;;;28.24;34.45;96344.91;4931181;28;20074;-30
2021/06/30 11:03:36;;;;;;;9.07;1.48;;;;;;;28.24;34.48;96352.81;4945891;28;20037;-32
2021/06/30 11:06:14;;;;;;;5.25;1.40;;;;;;;28.25;34.40;96349.22;4932107;28;20704;-29
2021/06/30 11:08:47;;;;;;;4.10;1.30;;;;;;;28.25;34.38;96346.59;4932431;28;20156;-33
2021/06/30 11:11:24;;;;;;;4.07;1.38;;;;;;;28.25;34.49;96344.84;4947133;28;20030;-36
2021/06/30 11:14:02;;;;;;;5.63;1.10;;;;;;;28.26;34.60;96337.78;4931331;28;20101;-33
2021/06/30 11:16:40;;;;;;;2.53;1.30;;;;;;;28.26;34.53;96338.59;4933039;28;20034;-35
2021/06/30 11:19:18;;;;;;;4.50;1.40;;;;;;;28.28;34.79;96335.88;4931594;28;20711;-32
2021/06/30 11:21:56;;;;;;;4.35;1.40;;;;;;;28.27;34.77;96336.81;4930507;28;20227;-32
2021/06/30 11:27:16;;;;;;;3.72;1.25;;;;;;;28.29;34.75;96340.19;4932621;28;20848;-33
2021/06/30 11:30:02;;;;;;;2.85;0.95;;;;;;;28.29;34.67;96350.72;4931711;28;20027;-32
2021/06/30 11:35:09;;;;;;;4.30;1.30;;;;;;;28.30;34.93;96336.63;4933585;28;20062;-35
2021/06/30 11:37:44;;;;;;;3.70;1.30;;;;;;;28.30;35.01;96337.44;4934131;28;20034;-34
2021/06/30 11:40:22;;;;;;;3.10;1.13;;;;;;;28.31;34.99;96340.94;4933294;28;21038;-34
2021/06/30 11:42:50;;;;;;;5.22;0.95;;;;;;;28.32;34.90;96334.69;4931241;28;20743;-31
2021/06/30 11:45:34;;;;;;;7.28;1.38;;;;;;;28.32;35.03;96334.69;4930825;28;20038;-33
2021/06/30 11:48:04;;;;;;;2.28;1.10;;;;;;;28.34;34.90;96326.69;4932899;28;20122;-31
2021/06/30 11:50:43;;;;;;;5.30;1.05;;;;;;;28.33;34.94;96325.84;4930397;28;20753;-34
2021/06/30 11:53:08;;;;;;;3.00;1.10;;;;;;;28.35;35.25;96326.59;4931119;28;20030;-34
2021/06/30 11:55:39;;;;;;;2.78;1.08;;;;;;;28.36;35.16;96325.63;4931729;28;20039;-31
2021/06/30 11:58:04;;;;;;;4.80;1.23;;;;;;;28.36;35.14;96323.00;4932075;28;20647;-32
2021/06/30 12:00:31;;;;;;;2.70;1.00;;;;;;;28.36;35.13;96325.63;4932159;28;20730;-29
2021/06/30 12:03:05;;;;;;;5.82;1.30;;;;;;;28.37;35.18;96323.84;4944990;28;20030;-32
2021/06/30 12:05:35;;;;;;;4.20;1.10;;;;;;;28.38;35.10;96325.53;4929370;28;20045;-33
2021/06/30 12:08:01;;;;;;;3.55;1.27;;;;;;;28.38;35.24;96318.44;4929442;28;20042;-29
2021/06/30 12:10:31;;;;;;;2.35;0.80;;;;;;;28.39;35.32;96325.41;4934596;28;20208;-32